Earby, United Kingdom
Current Conditions -  °F | °C
As of 3:50 AM on Wednesday 26 Nov 2014 (Local Time) from EGNM Reporting Station
Light Rain Light Rain  
Wind Chill: 36°   Ceiling: 900
Heat Index: 41°   Visibility: 4mi
Dew Point: 39°   Wind: 7mph
Humidity: 93%   Direction: 20°NNE
Pressure: 30"   Gusts: NA
Location:  53.92°N, 2.14°W
Report Text: EGNM 260350Z 02006KT 6000 -RA SCT006 BKN009 05/04 Q1016
Loading
Personal Weather Stations






























Interactive Weather Map New forecast layout! Learn more

10-Day Weather Forecast

Advertisements
Track Severe Weather on mobile